AirNav   Everest Fuels
 
 1568 users online  

93TS Longbird Airport
Sealy, Texas, USA

GOING TO SEALY?


FAA INFORMATION EFFECTIVE 13 AUGUST 2020

Location

FAA Identifier: 93TS
Lat/Long: 29-44-53.8400N 096-06-52.8550W
29-44.897333N 096-06.880917W
29.7482889,-96.1146819
(estimated)
Elevation: 150 ft. / 46 m (estimated)
Variation: 06E (1985)
From city: 2 miles SW of SEALY, TX
Time zone: UTC -5 (UTC -6 during Standard Time)
Zip code: 77474

Airport Operations

Airport use: Private use. Permission required prior to landing
Activation date: 06/1987
Control tower: no
ARTCC: HOUSTON CENTER
FSS: MONTGOMERY COUNTY FLIGHT SERVICE STATION
Attendance: SR-SS
Wind indicator: yes
Segmented circle: no

Airport Communications

WX AWOS-3 at TME (12 nm E): 119.525 (281-945-5451)
WX AWOS-3PT at ELA (14 nm SW): 128.475 (979-234-2665)

Nearby radio navigation aids

VOR radial/distance  VOR name  Freq  Var
ELAr056/11.7EAGLE LAKE VOR/DME116.4008E
IDUr110/26.4INDUSTRY VORTAC110.2008E
TNVr177/32.5NAVASOTA VOR/DME115.9008E

 
NDB name  Hdg/Dist  Freq  Var  ID
WHARTON001/29.724503EARM .- .-. --

Airport Services

Runway Information

Runway 18/36

Dimensions: 3500 x 100 ft. / 1067 x 30 m
Surface: turf
RUNWAY 18  RUNWAY 36
Traffic pattern: leftleft
Obstructions: none30 ft. trees, 30 ft. from runway

Runway 9/27

Dimensions: 2550 x 150 ft. / 777 x 46 m
Surface: turf
RUNWAY 9  RUNWAY 27
Traffic pattern: leftleft
Obstructions: none30 ft. pline, 30 ft. from runway

Airport Ownership and Management from official FAA records

Ownership: Privately-owned
Owner: SUSAN & SANDY PHILLIPS
274 WARD BEND RD
SEALY, TX 77474
Phone 409-885-6300
Manager: SUSAN PHILLIPS
274 WARD BEND RD
SEALY, TX 77474
Phone 409-885-6777

Airport Operational Statistics

Aircraft based on the field: 4
Single engine airplanes: 3
Multi engine airplanes: 1
    

Additional Remarks

FOR CD CTC HOUSTON ARTCC AT 281-230-5622.

Instrument Procedures

There are no published instrument procedures at 93TS.

Some nearby airports with instrument procedures:

KTME - Houston Executive Airport (12 nm E)
KELA - Eagle Lake Airport (14 nm SW)
KIWS - West Houston Airport (23 nm E)
KSGR - Sugar Land Regional Airport (25 nm E)
KARM - Wharton Regional Airport (30 nm S)
 
Loc | Ops | Rwys | IFR | FBO | Links
Com | Nav | Svcs | Stats | Notes
Area around 93TS (Longbird Airport)
 
Road maps at: MapQuest Bing Google
 
Aerial photo
No photo
 
Sectional chart

 
Airport distance calculator
Flying to Longbird Airport? Find the distance to fly.

From to 93TS

Sunrise and sunset
Times for 13-Aug-2020
 Local
(UTC-5)
 Zulu
(UTC)
Morning civil twilight06:2711:27
Sunrise06:5311:53
Sunset20:0601:06
Evening civil twilight20:3101:31

Current date and time
Zulu (UTC)  13-Aug-2020 17:42:00
Local (UTC-5)  13-Aug-2020 12:42:00
 
METAR
KTME 
12nm E 
131715Z AUTO 20008KT 9SM FEW036 33/24 A3001 RMK AO2
KELA 
14nm SW 
131715Z AUTO 22004KT 10SM SCT032 34/24 A3000 RMK AO2 T03400241
K66R 
22nm W 
131715Z AUTO 22003KT 10SM CLR 32/23 A3001 RMK AO2 T03200232
TAF
KSGR 
25nm E 
131120Z 1312/1412 19004KT P6SM SKC FM131400 22007KT P6SM SCT250 FM132000 18005KT P6SM FEW250 FM140800 VRB03KT P6SM FEW250
NOTAMs
Click for the latest NOTAMs
NOTAMs are issued by the DoD/FAA and will open in a separate window not controlled by AirNav.

 

 
 

Would you like to see your business listed on this page?

 If your business provides an interesting product or service to pilots, flight crews, aircraft, or users of the Longbird Airport, you should consider listing it here.  To start the listing process, click on the button below
 
Add a business
 

Other Pages about Longbird Airport

Update a link
 
Copyright © AirNav, LLC. All rights reserved. Privacy Policy  Contact